ěÝzenÝ letovÚho provozu ╚eskÚ republiky
OPMET data - Ceska Republika (LK) Aktualizace: 27.02.2024 12:21:39  UTC
SIGMET / AIRMET - NIL
Warning / Vystraha - NIL
AIREP - NIL
REG QNH
REGIONAL QNH FORECAST ISSUED 2024-02-27 11:43
AREA VALID FM/TL QNH/HPA/
LKAA 271200/271300 1009
 
METAR / SPECI
SPECI LKBC 271213Z AUTO 36004KT 290V060 //// // BKN010 06/03 Q1011=
SPECI LKCR 271218Z AUTO 31004KT 280V350 4200 R06///// BR OVC003 05/04 Q1012=
METAR LKCS 271200Z AUTO 05003KT 010V080 9999 OVC011/// 05/02 Q1011=
METAR LKCV 271200Z 31004KT 4000 BR OVC006 04/03 Q1013 NOSIG RMK YLO YLO=
METAR LKKB 271200Z 35004KT 320V020 6000 SCT006 OVC008 06/04 Q1013 NOSIG RMK GRN GRN=
METAR LKKU 271200Z 16013KT 9999 FEW035 16/08 Q1012=
METAR LKKV 271200Z 06005KT 360V100 9999 FEW019 08/03 Q1012=
METAR LKLN 271200Z AUTO 05005KT 320V080 9000 // OVC089 08/04 Q1012=
METAR LKMT 271200Z 33003KT 290V020 9999 FEW049 16/07 Q1012 NOSIG=
METAR LKNA 271200Z 13016KT 9999 FEW025 BKN250 12/06 Q1011 NOSIG RMK BLU BLU=
METAR LKPD 271200Z 24004KT 220V280 3400 BR OVC004 04/04 Q1013 NOSIG RMK YLO YLO=
METAR LKPJ 271200Z AUTO 15003KT 110V210 9999 // FEW033/// 15/08 Q1012=
METAR LKPR 271200Z 03006KT 360V060 5000 BR BKN007 OVC010 06/04 Q1012 BECMG 7000 NSW BKN012=
METAR LKTB 271200Z 14011KT 9999 FEW028 14/08 Q1012 NOSIG=
METAR LKTH 271200Z AUTO 18005KT 140V250 9999 BKN025 OVC032 12/06 Q1012=
METAR LKVO NIL
TAF
TAF LKBC NIL
TAF LKCR NIL
TAF LKCS NIL
TAF LKCV 271100Z 2712/2812 VRB02KT 3000 BR BKN005      BECMG 2712/2714 32005KT 7000 NSW SCT020      TEMPO 2714/2718 CAVOK      BECMG 2720/2722 VRB02KT 5000 BR BKN008      TEMPO 2800/2809 2000 DZ BR BKN004      PROB30 TEMPO 2800/2809 0500 FG VV002=
TAF LKKB 271100Z 2712/2812 VRB02KT 3000 BR BKN005      PROB30 TEMPO 2712/2714 0900 FG OVC003      BECMG 2712/2715 35006KT 9999 SCT020      BECMG 2717/2719 33008KT      BECMG 2723/2801 5000 BR SCT010      TEMPO 2802/2807 1500 BR BKN005      BECMG 2810/2812 33010KT=
TAF LKKU NIL
TAF LKKV 271100Z 2712/2812 03006KT CAVOK      TEMPO 2712/2717 9999 SCT017      BECMG 2800/2802 VRB02KT 5000 BR SCT004      TEMPO 2802/2810 3000 BR BKN004      BECMG 2810/2812 9999 BKN017=
TAF LKLN NIL
TAF LKMT 271100Z 2712/2812 18006KT CAVOK      BECMG 2718/2720 9999 BKN030=
TAF LKNA 271100Z 2712/2812 14010KT CAVOK      TEMPO 2712/2810 9999 SCT030      PROB40 TEMPO 2722/2809 4000 BR BKN007      PROB30 TEMPO 2800/2806 2000 BR BKN003      BECMG 2808/2810 31006KT=
TAF LKPD 271100Z 2712/2812 VRB02KT 3000 BR BKN004      BECMG 2712/2715 31004KT 9999 NSW SCT020      TEMPO 2718/2812 VRB02KT 2000 DZ BR BKN004      PROB30 TEMPO 2722/2807 0500 FG VV001      BECMG 2804/2807 28006KT BKN020=
TAF LKPJ NIL
TAF LKPR 271100Z 2712/2818 35006KT 5000 BR BKN006      BECMG 2712/2714 9999 SCT015      BECMG 2800/2802 5000 BR SCT010      TEMPO 2802/2807 1200 BR BKN004      BECMG 2807/2809 9999 OVC017      BECMG 2816/2818 9999 SCT025=
TAF LKTB 271100Z 2712/2812 15010KT 9999 SCT025      BECMG 2717/2719 9999 BKN025      BECMG 2801/2803 18004KT CAVOK=
TAF LKTH NIL
TAF LKVO NIL